Time;durP1;ratioP1;P1;durP2;ratioP2;P2;SDS_P1;SDS_P2;PMS_P1;PMS_P2;Temp;Humidity;BMP_temperature;BMP_pressure;BME280_temperature;BME280_humidity;BME280_pressure;Samples;Min_cycle;Max_cycle;Signal;HPM_P1;HPM_P2
2022/10/06 00:00:54;;;;;;;9.43;1.58;;;13.50;99.90;;;;;;5047050;28;20526;-77
2022/10/06 00:03:21;;;;;;;1.95;1.45;;;13.40;99.90;;;;;;5050082;28;20064;-78
2022/10/06 00:05:48;;;;;;;5.00;1.70;;;13.40;99.90;;;;;;5051515;28;20786;-78
2022/10/06 00:08:14;;;;;;;1.63;0.90;;;13.30;99.90;;;;;;5056343;28;20781;-77
2022/10/06 00:10:40;;;;;;;1.30;1.08;;;13.30;99.90;;;;;;5054410;28;20037;-78
2022/10/06 00:13:06;;;;;;;4.00;1.33;;;13.20;99.90;;;;;;5050269;28;20075;-77
2022/10/06 00:15:32;;;;;;;3.65;1.40;;;13.20;99.90;;;;;;5050812;28;20134;-77
2022/10/06 00:17:58;;;;;;;2.80;1.48;;;13.20;99.90;;;;;;5051437;28;20052;-76
2022/10/06 00:20:25;;;;;;;4.38;1.33;;;13.20;99.90;;;;;;5052465;28;20051;-77
2022/10/06 00:22:51;;;;;;;4.00;1.98;;;13.10;99.90;;;;;;5055543;28;20576;-77
2022/10/06 00:25:21;;;;;;;3.17;1.33;;;13.20;99.90;;;;;;5052651;28;20076;-77
2022/10/06 00:27:49;;;;;;;5.10;3.42;;;13.10;99.90;;;;;;5050407;28;20832;-77
2022/10/06 00:30:17;;;;;;;3.17;1.70;;;13.10;99.90;;;;;;5048356;28;20045;-77
2022/10/06 00:32:56;;;;;;;4.25;1.70;;;13.10;99.90;;;;;;5054190;28;20219;-77
2022/10/06 00:35:24;;;;;;;6.28;2.10;;;13.10;99.90;;;;;;5041881;28;20792;-77
2022/10/06 00:37:50;;;;;;;3.75;1.50;;;13.00;99.90;;;;;;5050218;28;20045;-77
2022/10/06 00:40:16;;;;;;;5.20;1.50;;;13.00;99.90;;;;;;5055834;28;20128;-77
2022/10/06 00:42:54;;;;;;;9.60;1.58;;;13.00;99.90;;;;;;5047488;28;20122;-77
2022/10/06 00:45:29;;;;;;;3.67;1.63;;;13.00;99.90;;;;;;5055040;28;20120;-77
2022/10/06 00:47:59;;;;;;;6.95;1.90;;;12.90;99.90;;;;;;5046969;28;20064;-77
2022/10/06 00:50:25;;;;;;;3.20;1.80;;;12.90;99.90;;;;;;5051426;28;20044;-77
2022/10/06 00:52:51;;;;;;;6.38;1.73;;;12.90;99.90;;;;;;5057145;28;20058;-77
2022/10/06 00:55:19;;;;;;;5.07;1.73;;;12.80;99.90;;;;;;5047583;28;20577;-76
2022/10/06 00:57:45;;;;;;;3.42;1.70;;;12.80;99.90;;;;;;5060464;28;20044;-76
2022/10/06 01:00:11;;;;;;;5.55;1.85;;;12.80;99.90;;;;;;5055581;28;20052;-76
2022/10/06 01:02:45;;;;;;;3.17;1.77;;;12.80;99.90;;;;;;5052767;28;20044;-76
2022/10/06 01:05:19;;;;;;;5.53;1.60;;;12.80;99.90;;;;;;5042818;28;20129;-77
2022/10/06 01:07:45;;;;;;;2.80;1.90;;;12.70;99.90;;;;;;5049237;28;20052;-77
2022/10/06 01:10:10;;;;;;;12.20;2.45;;;12.50;99.90;;;;;;5089998;28;20047;-76
2022/10/06 01:12:37;;;;;;;3.35;1.75;;;12.70;99.90;;;;;;5058190;28;20040;-77
2022/10/06 01:15:03;;;;;;;5.20;1.80;;;12.70;99.90;;;;;;5059024;28;20103;-78
2022/10/06 01:17:41;;;;;;;10.02;2.13;;;12.70;99.90;;;;;;5057810;28;20044;-78
2022/10/06 01:20:10;;;;;;;4.13;2.10;;;12.70;99.90;;;;;;5041364;28;20049;-77
2022/10/06 01:22:42;;;;;;;6.05;1.73;;;12.70;99.90;;;;;;5047704;28;20048;-77
2022/10/06 01:25:10;;;;;;;3.92;2.38;;;12.70;99.90;;;;;;5053305;28;20052;-77
2022/10/06 01:27:37;;;;;;;8.65;2.38;;;12.70;99.90;;;;;;5043338;28;20079;-77
2022/10/06 01:30:06;;;;;;;4.13;1.90;;;12.70;99.90;;;;;;5045801;28;20806;-76
2022/10/06 01:32:36;;;;;;;8.02;1.70;;;12.70;99.90;;;;;;5055114;28;20307;-77
2022/10/06 01:35:02;;;;;;;4.03;1.73;;;12.60;99.90;;;;;;5055465;28;20048;-77
2022/10/06 01:37:27;;;;;;;8.65;2.85;;;12.60;99.90;;;;;;5056086;28;20049;-77
2022/10/06 01:39:53;;;;;;;4.18;2.08;;;12.60;99.90;;;;;;5052219;28;20045;-77
2022/10/06 01:42:18;;;;;;;6.70;1.92;;;12.50;99.90;;;;;;5054381;28;20044;-77
2022/10/06 01:44:44;;;;;;;5.70;1.92;;;12.50;99.90;;;;;;5052445;28;20129;-78
2022/10/06 01:47:10;;;;;;;6.53;1.75;;;12.50;99.90;;;;;;5049909;28;20057;-77
2022/10/06 01:49:35;;;;;;;3.53;1.50;;;12.50;99.90;;;;;;5057419;28;20132;-77
2022/10/06 01:52:02;;;;;;;8.95;2.35;;;12.50;99.90;;;;;;5058699;28;20049;-79
2022/10/06 01:54:27;;;;;;;5.60;2.65;;;12.50;99.90;;;;;;5058696;28;20051;-78
2022/10/06 01:56:53;;;;;;;6.72;2.53;;;12.50;99.90;;;;;;5059369;28;20048;-78
2022/10/06 01:59:19;;;;;;;5.70;1.83;;;12.40;99.90;;;;;;5054723;28;20052;-77
2022/10/06 02:01:44;;;;;;;6.90;2.92;;;12.40;99.90;;;;;;5060157;28;20045;-77
2022/10/06 02:04:10;;;;;;;5.10;2.10;;;12.40;99.90;;;;;;5056801;28;20122;-79
2022/10/06 02:06:36;;;;;;;6.43;1.88;;;12.30;99.90;;;;;;5056239;28;20151;-77
2022/10/06 02:09:01;;;;;;;6.57;2.35;;;12.30;99.90;;;;;;5044051;28;20083;-77
2022/10/06 02:11:28;;;;;;;10.43;2.60;;;12.30;99.90;;;;;;5050621;28;20048;-77
2022/10/06 02:13:53;;;;;;;7.93;2.15;;;12.30;99.90;;;;;;5055017;28;20154;-78
2022/10/06 02:16:19;;;;;;;9.00;2.28;;;12.00;99.90;;;;;;5059414;28;20067;-77
2022/10/06 02:18:45;;;;;;;9.38;2.25;;;12.20;99.90;;;;;;5057481;28;20080;-78
2022/10/06 02:21:19;;;;;;;6.30;2.05;;;12.20;99.90;;;;;;5055962;28;20100;-78
2022/10/06 02:23:45;;;;;;;8.48;2.92;;;12.20;99.90;;;;;;5053809;28;20197;-78
2022/10/06 02:26:12;;;;;;;4.68;2.00;;;12.10;99.90;;;;;;5051469;28;20049;-78
2022/10/06 02:28:38;;;;;;;9.93;2.40;;;12.10;99.90;;;;;;5051211;28;20140;-77
2022/10/06 02:31:08;;;;;;;9.65;2.28;;;12.10;99.90;;;;;;5040898;28;20706;-78
2022/10/06 02:33:35;;;;;;;9.23;2.55;;;12.10;99.90;;;;;;5050453;28;20080;-78
2022/10/06 02:36:02;;;;;;;11.00;2.30;;;12.00;99.90;;;;;;5053799;28;20048;-78
2022/10/06 02:38:28;;;;;;;8.27;2.10;;;12.00;99.90;;;;;;5057631;28;20137;-77
2022/10/06 02:40:54;;;;;;;6.97;2.20;;;12.00;99.90;;;;;;5053485;28;20127;-77
2022/10/06 02:43:20;;;;;;;4.55;2.42;;;12.00;99.90;;;;;;5056109;28;20105;-78
2022/10/06 02:45:54;;;;;;;8.52;2.97;;;12.00;99.90;;;;;;5047600;28;20122;-79
2022/10/06 02:48:24;;;;;;;5.15;2.00;;;12.00;99.90;;;;;;5053832;28;20060;-77
2022/10/06 02:50:57;;;;;;;4.90;2.40;;;11.90;99.90;;;;;;5056986;28;20098;-78
2022/10/06 02:53:24;;;;;;;3.83;2.58;;;11.90;99.90;;;;;;5053823;28;20087;-77
2022/10/06 02:55:56;;;;;;;3.58;2.53;;;11.90;99.90;;;;;;5053651;28;20086;-78
2022/10/06 02:58:21;;;;;;;7.22;2.13;;;11.90;99.90;;;;;;5052320;28;20052;-77
2022/10/06 03:00:47;;;;;;;7.97;1.95;;;11.90;99.90;;;;;;5054599;28;20121;-77
2022/10/06 03:03:12;;;;;;;7.47;2.65;;;11.90;99.90;;;;;;5048397;28;20056;-78
2022/10/06 03:05:38;;;;;;;8.63;2.70;;;11.80;99.90;;;;;;5048955;28;20055;-78
2022/10/06 03:08:04;;;;;;;11.05;3.90;;;11.80;99.90;;;;;;5045760;28;20069;-78
2022/10/06 03:10:29;;;;;;;8.20;2.33;;;11.80;99.90;;;;;;5088579;28;20194;-78
2022/10/06 03:12:55;;;;;;;6.20;2.30;;;11.80;99.90;;;;;;5051751;28;20056;-78
2022/10/06 03:15:21;;;;;;;11.27;3.28;;;11.80;99.90;;;;;;5055211;28;20063;-79
2022/10/06 03:17:49;;;;;;;7.68;2.20;;;11.70;99.90;;;;;;5052423;28;20048;-77
2022/10/06 03:20:15;;;;;;;4.32;1.65;;;11.70;99.90;;;;;;5054637;28;20045;-79
2022/10/06 03:22:40;;;;;;;6.15;2.45;;;11.70;99.90;;;;;;5050376;28;20107;-78
2022/10/06 03:25:06;;;;;;;8.63;2.25;;;11.70;99.90;;;;;;5054763;28;20465;-78
2022/10/06 03:27:32;;;;;;;8.10;2.53;;;11.70;99.90;;;;;;5041940;28;20057;-77
2022/10/06 03:29:58;;;;;;;4.90;2.03;;;11.70;99.90;;;;;;5055729;28;20059;-78
2022/10/06 03:32:23;;;;;;;4.80;2.28;;;11.70;99.90;;;;;;5055459;28;20044;-78
2022/10/06 03:34:49;;;;;;;5.70;2.25;;;11.60;99.90;;;;;;5044738;28;20123;-78
2022/10/06 03:37:17;;;;;;;4.93;2.45;;;11.60;99.90;;;;;;5054033;28;20075;-78
2022/10/06 03:39:43;;;;;;;4.18;2.08;;;11.60;99.90;;;;;;5084977;28;20049;-79
2022/10/06 03:42:09;;;;;;;7.28;1.75;;;11.60;99.90;;;;;;5051421;28;20082;-78
2022/10/06 03:44:35;;;;;;;4.03;1.63;;;11.60;99.90;;;;;;5056353;28;20052;-79
2022/10/06 03:47:01;;;;;;;6.25;2.10;;;11.50;99.90;;;;;;5052019;28;20146;-79
2022/10/06 03:49:27;;;;;;;9.30;3.03;;;11.50;99.90;;;;;;5055580;28;20446;-77
2022/10/06 03:51:53;;;;;;;7.57;2.20;;;11.50;99.90;;;;;;5052423;28;20044;-78
2022/10/06 03:54:19;;;;;;;8.70;2.42;;;11.50;99.90;;;;;;5054365;28;20145;-77
2022/10/06 03:56:45;;;;;;;9.55;2.85;;;11.50;99.90;;;;;;5054111;28;20516;-79
2022/10/06 03:59:12;;;;;;;7.18;2.25;;;11.50;99.90;;;;;;5053443;28;20048;-79
2022/10/06 04:01:41;;;;;;;5.72;2.67;;;11.50;99.90;;;;;;5056233;28;20084;-79
2022/10/06 04:04:08;;;;;;;6.05;3.10;;;11.50;99.90;;;;;;5047883;28;20140;-78
2022/10/06 04:06:36;;;;;;;6.18;2.25;;;11.50;99.90;;;;;;5051779;28;20510;-79
2022/10/06 04:09:03;;;;;;;8.90;2.40;;;11.50;99.90;;;;;;5046187;28;20049;-79
2022/10/06 04:11:31;;;;;;;5.25;2.03;;;11.40;99.90;;;;;;5057100;28;20629;-80
2022/10/06 04:14:05;;;;;;;6.25;2.28;;;11.40;99.90;;;;;;5053131;28;20231;-77
2022/10/06 04:16:33;;;;;;;4.47;2.05;;;11.40;99.90;;;;;;5056268;28;20148;-79
2022/10/06 04:19:01;;;;;;;10.50;3.08;;;11.40;99.90;;;;;;5050021;28;20051;-80
2022/10/06 04:21:28;;;;;;;5.30;2.08;;;11.40;99.90;;;;;;5047286;28;20048;-78
2022/10/06 04:23:57;;;;;;;10.50;2.65;;;11.40;99.90;;;;;;5055761;28;20156;-79
2022/10/06 04:26:32;;;;;;;5.93;2.08;;;11.30;99.90;;;;;;5044308;28;20055;-79
2022/10/06 04:28:59;;;;;;;6.95;2.45;;;11.30;99.90;;;;;;5042923;28;20082;-77
2022/10/06 04:31:30;;;;;;;2.75;1.73;;;11.30;99.90;;;;;;5054497;28;20123;-78
2022/10/06 04:33:58;;;;;;;8.00;2.17;;;11.30;99.90;;;;;;5061281;28;20137;-80
2022/10/06 04:36:26;;;;;;;3.15;1.70;;;10.70;99.90;;;;;;5059261;28;20557;-79
2022/10/06 04:38:55;;;;;;;6.32;1.95;;;11.20;99.90;;;;;;5057710;28;20048;-78
2022/10/06 04:41:22;;;;;;;7.50;2.72;;;11.20;99.90;;;;;;5053272;28;20110;-79
2022/10/06 04:43:49;;;;;;;6.30;2.08;;;11.20;99.90;;;;;;5050758;28;20115;-80
2022/10/06 04:46:16;;;;;;;5.65;2.00;;;11.10;99.90;;;;;;5059684;28;20057;-80
2022/10/06 04:48:42;;;;;;;3.85;2.35;;;11.10;99.90;;;;;;5061911;28;20251;-78
2022/10/06 04:51:14;;;;;;;8.50;2.83;;;11.10;99.90;;;;;;5045536;28;20061;-79
2022/10/06 04:53:40;;;;;;;8.35;2.65;;;11.10;99.90;;;;;;5043318;28;20080;-79
2022/10/06 04:56:15;;;;;;;6.63;2.13;;;11.00;99.90;;;;;;5057201;28;20631;-78
2022/10/06 04:58:46;;;;;;;4.20;2.00;;;11.00;99.90;;;;;;5053025;28;20047;-80
2022/10/06 05:01:17;;;;;;;5.07;1.92;;;11.00;99.90;;;;;;5059990;28;20148;-78
2022/10/06 05:03:44;;;;;;;5.53;2.00;;;10.90;99.90;;;;;;5060654;28;20055;-78
2022/10/06 05:06:22;;;;;;;9.57;2.58;;;10.90;99.90;;;;;;5054774;28;20059;-80
2022/10/06 05:08:59;;;;;;;9.13;2.92;;;10.90;99.90;;;;;;5055146;28;20045;-78
2022/10/06 05:11:25;;;;;;;4.65;2.35;;;10.90;99.90;;;;;;5052138;28;20452;-80
2022/10/06 05:13:53;;;;;;;4.30;2.05;;;10.80;99.90;;;;;;5043224;28;20136;-79
2022/10/06 05:16:21;;;;;;;5.72;2.55;;;10.80;99.90;;;;;;5059170;28;20079;-80
2022/10/06 05:18:46;;;;;;;6.35;2.80;;;10.80;99.90;;;;;;5048513;28;20106;-80
2022/10/06 05:21:21;;;;;;;5.82;2.70;;;10.80;99.90;;;;;;5055496;28;20056;-79
2022/10/06 05:23:47;;;;;;;9.48;2.30;;;10.80;99.90;;;;;;5052379;28;20904;-79
2022/10/06 05:26:15;;;;;;;5.97;2.50;;;10.80;99.90;;;;;;5047068;28;20049;-80
2022/10/06 05:28:41;;;;;;;6.57;2.33;;;10.80;99.90;;;;;;5054855;28;20072;-80
2022/10/06 05:31:12;;;;;;;7.10;2.50;;;10.90;99.90;;;;;;5052637;28;20277;-80
2022/10/06 05:33:38;;;;;;;4.00;2.42;;;10.80;99.90;;;;;;5057790;28;20955;-79
2022/10/06 05:36:27;;;;;;;4.38;2.60;;;10.80;99.90;;;;;;5054941;28;20080;-79
2022/10/06 05:38:52;;;;;;;6.28;2.22;;;10.80;99.90;;;;;;5050875;28;20084;-80
2022/10/06 05:41:23;;;;;;;6.43;2.17;;;10.70;99.90;;;;;;5054738;28;20152;-79
2022/10/06 05:43:49;;;;;;;12.40;2.83;;;10.70;99.90;;;;;;5051882;28;20132;-80
2022/10/06 05:46:24;;;;;;;6.20;2.50;;;10.70;99.90;;;;;;5056418;28;20520;-78
2022/10/06 05:48:55;;;;;;;14.35;2.70;;;10.80;99.90;;;;;;5051978;28;20078;-80
2022/10/06 05:51:23;;;;;;;6.38;2.38;;;10.70;99.90;;;;;;5058826;28;20044;-80
2022/10/06 05:53:49;;;;;;;6.32;2.20;;;10.80;99.90;;;;;;5054396;28;20048;-79
2022/10/06 05:56:16;;;;;;;9.45;2.83;;;10.80;99.90;;;;;;5054324;28;20048;-81
2022/10/06 05:58:44;;;;;;;5.40;2.40;;;10.80;99.90;;;;;;5051704;28;20302;-80
2022/10/06 06:01:17;;;;;;;6.45;2.38;;;10.80;99.90;;;;;;5052476;28;20100;-79
2022/10/06 06:03:50;;;;;;;11.05;2.72;;;10.80;99.90;;;;;;5082120;28;20786;-79
2022/10/06 06:06:20;;;;;;;9.43;2.60;;;10.80;99.90;;;;;;5054858;28;20044;-81
2022/10/06 06:08:50;;;;;;;6.50;2.65;;;10.90;99.90;;;;;;5053090;28;20051;-79
2022/10/06 06:11:16;;;;;;;6.80;2.63;;;10.90;99.90;;;;;;5047036;28;20068;-81
2022/10/06 06:13:41;;;;;;;4.68;2.45;;;10.90;99.90;;;;;;5048728;28;20151;-80
2022/10/06 06:16:13;;;;;;;8.40;3.08;;;11.00;99.90;;;;;;5052588;28;20037;-81
2022/10/06 06:18:38;;;;;;;9.10;2.72;;;11.00;99.90;;;;;;5050968;28;20094;-79
2022/10/06 06:21:06;;;;;;;4.95;2.08;;;11.00;99.90;;;;;;5041343;28;20055;-80
2022/10/06 06:23:45;;;;;;;8.55;2.95;;;11.10;99.90;;;;;;5054289;28;20133;-81
2022/10/06 06:26:17;;;;;;;10.65;2.67;;;11.20;99.90;;;;;;5050535;28;20123;-81
2022/10/06 06:28:45;;;;;;;9.63;3.17;;;11.30;99.90;;;;;;5047976;28;20091;-80
2022/10/06 06:31:20;;;;;;;7.95;3.47;;;11.30;99.90;;;;;;5053831;28;20087;-78
2022/10/06 06:33:46;;;;;;;6.85;2.10;;;11.40;99.90;;;;;;5055863;28;20059;-79
2022/10/06 06:36:16;;;;;;;8.95;2.50;;;11.40;99.90;;;;;;5052494;28;20118;-80
2022/10/06 06:38:45;;;;;;;10.15;2.40;;;11.40;99.90;;;;;;5053523;28;20429;-78
2022/10/06 06:41:19;;;;;;;7.32;2.75;;;11.50;99.90;;;;;;5056068;28;20072;-77
2022/10/06 06:43:46;;;;;;;9.68;2.72;;;11.50;99.90;;;;;;5057596;28;20159;-80
2022/10/06 06:46:16;;;;;;;4.35;2.33;;;11.50;99.90;;;;;;5048228;28;20053;-78
2022/10/06 06:48:42;;;;;;;7.88;2.83;;;11.60;99.90;;;;;;5045297;28;20651;-78
2022/10/06 06:51:10;;;;;;;11.88;2.50;;;11.60;99.90;;;;;;5041648;28;20078;-80
2022/10/06 06:53:36;;;;;;;10.23;4.10;;;11.70;99.90;;;;;;5053628;28;20028;-78
2022/10/06 06:56:05;;;;;;;8.73;3.05;;;11.70;99.90;;;;;;5081613;28;20047;-77
2022/10/06 06:58:31;;;;;;;6.20;2.80;;;11.70;99.90;;;;;;5065243;28;20047;-78
2022/10/06 07:01:10;;;;;;;7.70;2.50;;;11.80;99.90;;;;;;5051226;28;20052;-78
2022/10/06 07:03:38;;;;;;;8.57;2.63;;;11.90;99.90;;;;;;5056107;28;20055;-78
2022/10/06 07:06:09;;;;;;;6.30;2.38;;;12.00;99.90;;;;;;5051568;28;20136;-77
2022/10/06 07:08:41;;;;;;;10.18;3.28;;;12.00;99.90;;;;;;5049215;28;20056;-80
2022/10/06 07:11:13;;;;;;;6.83;2.83;;;12.10;99.90;;;;;;5048805;28;20049;-79
2022/10/06 07:13:39;;;;;;;5.78;2.30;;;12.10;99.90;;;;;;5056795;28;20056;-78
2022/10/06 07:27:04;;;;;;;10.88;2.95;;;12.40;99.90;;;;;;5052661;28;20063;-78
2022/10/06 07:29:30;;;;;;;7.93;1.98;;;12.50;99.90;;;;;;5058768;28;20040;-78
2022/10/06 07:31:56;;;;;;;4.70;2.35;;;12.50;99.90;;;;;;5057315;28;20059;-79
2022/10/06 07:34:22;;;;;;;6.57;2.42;;;12.60;99.90;;;;;;5041833;28;20060;-77
2022/10/06 07:36:52;;;;;;;10.10;2.28;;;12.70;99.90;;;;;;5054324;28;20048;-78
2022/10/06 07:39:19;;;;;;;6.13;1.98;;;12.70;99.90;;;;;;5051369;28;20843;-77
2022/10/06 07:41:45;;;;;;;12.90;4.88;;;12.80;99.90;;;;;;5055449;28;20098;-79
2022/10/06 07:44:10;;;;;;;7.20;2.17;;;12.80;99.90;;;;;;5048209;28;20040;-82
2022/10/06 07:46:36;;;;;;;5.20;2.45;;;12.90;99.90;;;;;;5052887;28;20128;-80
2022/10/06 07:49:02;;;;;;;7.43;2.42;;;13.00;99.90;;;;;;5042732;28;20140;-82
2022/10/06 07:51:28;;;;;;;5.95;2.28;;;13.00;99.90;;;;;;5055538;28;20740;-78
2022/10/06 07:53:53;;;;;;;10.95;3.35;;;13.10;99.90;;;;;;5042012;28;20413;-78
2022/10/06 07:56:20;;;;;;;6.63;2.45;;;13.20;99.90;;;;;;5054502;28;20048;-78
2022/10/06 07:58:50;;;;;;;5.13;1.98;;;13.30;99.90;;;;;;5052885;28;20037;-78
2022/10/06 08:01:17;;;;;;;9.15;2.10;;;13.40;99.90;;;;;;5049840;28;20036;-78
2022/10/06 08:03:47;;;;;;;7.00;1.88;;;13.40;99.90;;;;;;5049832;28;20056;-79
2022/10/06 08:06:15;;;;;;;5.68;2.30;;;13.50;99.90;;;;;;5056028;28;20719;-77
2022/10/06 08:08:43;;;;;;;5.15;2.47;;;13.60;99.90;;;;;;5043978;28;20049;-78
2022/10/06 08:11:09;;;;;;;8.63;2.63;;;13.60;99.90;;;;;;5054223;28;20490;-78
2022/10/06 08:13:43;;;;;;;5.95;2.47;;;13.70;99.90;;;;;;5052373;28;20399;-78
2022/10/06 08:16:11;;;;;;;11.57;2.70;;;13.80;99.90;;;;;;5056743;28;20130;-78
2022/10/06 08:18:37;;;;;;;3.88;2.03;;;13.80;99.90;;;;;;5052144;28;20906;-77
2022/10/06 08:21:14;;;;;;;8.13;2.50;;;14.00;99.90;;;;;;5047171;28;20044;-77
2022/10/06 08:23:45;;;;;;;8.82;3.83;;;14.00;99.90;;;;;;5084763;28;20628;-77
2022/10/06 08:26:12;;;;;;;11.00;3.05;;;14.20;99.90;;;;;;5055065;28;20051;-78
2022/10/06 08:28:38;;;;;;;8.70;3.40;;;14.30;99.90;;;;;;5054450;28;20044;-77
2022/10/06 08:31:11;;;;;;;6.03;2.28;;;14.40;99.90;;;;;;5055197;28;20037;-78
2022/10/06 08:33:37;;;;;;;;;;;14.50;99.90;;;;;;5056065;28;20155;-78
2022/10/06 08:36:09;;;;;;;7.38;2.05;;;14.70;99.90;;;;;;5046560;28;19924;-75
2022/10/06 08:38:36;;;;;;;5.82;2.42;;;14.80;99.90;;;;;;5053167;28;20534;-74
2022/10/06 08:41:23;;;;;;;7.13;2.00;;;15.00;99.90;;;;;;5053734;28;20048;-77
2022/10/06 08:44:17;;;;;;;5.72;2.22;;;15.20;99.90;;;;;;5050983;28;20130;-78
2022/10/06 08:47:02;;;;;;;8.82;2.75;;;15.60;99.90;;;;;;5038570;28;20064;-78
2022/10/06 08:49:41;;;;;;;3.35;2.30;;;16.30;99.90;;;;;;5051487;28;20056;-78
2022/10/06 08:52:35;;;;;;;6.32;2.08;;;17.10;99.90;;;;;;5050288;28;20565;-77
2022/10/06 08:55:28;;;;;;;5.35;2.08;;;18.30;99.90;;;;;;5051603;28;20053;-80
2022/10/06 08:58:22;;;;;;;8.93;2.13;;;19.20;99.90;;;;;;5054166;28;20053;-79
2022/10/06 09:00:48;;;;;;;;;;;19.40;98.30;;;;;;5055520;28;20052;-79
2022/10/06 09:03:28;;;;;;;4.95;1.85;;;19.40;97.00;;;;;;5055837;28;19925;-79
2022/10/06 09:06:06;;;;;;;6.70;2.30;;;19.50;96.30;;;;;;5056160;28;20048;-78
2022/10/06 09:08:43;;;;;;;5.20;1.80;;;19.90;96.50;;;;;;5080778;28;20049;-79
2022/10/06 09:11:15;;;;;;;10.85;2.42;;;19.80;99.90;;;;;;5056417;28;20420;-76
2022/10/06 09:13:48;;;;;;;7.93;3.22;;;19.80;99.90;;;;;;5056887;28;20394;-73
2022/10/06 09:16:18;;;;;;;8.38;1.95;;;20.10;96.40;;;;;;5054080;28;20055;-75
2022/10/06 09:18:47;;;;;;;7.85;2.03;;;21.00;99.30;;;;;;5051754;28;20037;-76
2022/10/06 09:21:44;;;;;;;6.70;2.10;;;21.30;94.70;;;;;;5051474;28;20517;-75
2022/10/06 09:24:15;;;;;;;6.15;2.50;;;21.70;95.30;;;;;;5045180;28;20052;-77
2022/10/06 09:26:47;;;;;;;10.77;2.65;;;21.80;96.00;;;;;;5059858;28;20555;-77
2022/10/06 09:29:13;;;;;;;6.33;3.00;;;21.50;96.70;;;;;;5090077;28;20060;-78
2022/10/06 09:31:49;;;;;;;5.43;2.08;;;21.70;95.80;;;;;;5041921;28;20640;-78
2022/10/06 09:34:36;;;;;;;6.18;1.90;;;21.50;94.90;;;;;;5045020;28;20044;-78
2022/10/06 09:37:08;;;;;;;5.32;1.58;;;21.80;94.60;;;;;;5061031;28;20113;-78
2022/10/06 09:39:36;;;;;;;6.10;1.70;;;22.00;92.80;;;;;;5049281;28;20052;-74
2022/10/06 09:42:17;;;;;;;8.52;1.70;;;21.40;93.20;;;;;;5056460;28;20056;-75
2022/10/06 09:45:01;;;;;;;8.25;2.00;;;21.30;91.20;;;;;;5048375;28;20048;-77
2022/10/06 09:47:40;;;;;;;4.95;1.98;;;20.50;91.90;;;;;;5060081;28;20128;-78
2022/10/06 09:50:26;;;;;;;3.75;1.58;;;19.20;93.60;;;;;;5049716;28;20524;-76
2022/10/06 09:53:02;;;;;;;5.07;1.70;;;19.40;94.00;;;;;;5057637;28;20040;-78
2022/10/06 09:55:36;;;;;;;8.82;2.22;;;20.10;93.20;;;;;;5058362;28;20048;-78
2022/10/06 09:58:15;;;;;;;9.02;2.40;;;19.80;93.40;;;;;;5059321;28;20063;-77
2022/10/06 10:00:52;;;;;;;5.63;1.50;;;19.70;94.10;;;;;;5093016;28;20052;-76
2022/10/06 10:03:19;;;;;;;4.18;1.52;;;20.30;92.30;;;;;;5050109;28;20044;-77
2022/10/06 10:05:53;;;;;;;4.25;1.73;;;21.10;93.00;;;;;;5089462;28;20174;-78
2022/10/06 10:08:29;;;;;;;5.85;1.63;;;21.10;92.00;;;;;;5050637;28;20048;-75
2022/10/06 10:14:16;;;;;;;3.55;1.90;;;22.60;90.00;;;;;;5055843;28;20075;-76
2022/10/06 10:16:42;;;;;;;4.38;1.40;;;22.70;89.90;;;;;;5059246;28;20048;-74
2022/10/06 10:19:31;;;;;;;8.18;2.10;;;21.50;91.80;;;;;;5055779;28;20778;-74
2022/10/06 10:21:58;;;;;;;8.85;2.00;;;20.70;90.90;;;;;;5057892;28;20044;-77
2022/10/06 10:24:49;;;;;;;4.93;1.75;;;20.70;92.40;;;;;;5051422;28;20588;-78
2022/10/06 10:27:38;;;;;;;4.03;1.50;;;20.60;91.10;;;;;;5058657;28;20048;-77
2022/10/06 10:30:10;;;;;;;2.42;1.38;;;20.40;90.70;;;;;;5049594;28;20052;-77
2022/10/06 10:32:51;;;;;;;7.47;1.55;;;20.30;91.30;;;;;;5057971;28;20052;-77
2022/10/06 10:35:40;;;;;;;10.13;2.67;;;19.60;91.80;;;;;;5048071;28;20084;-77
2022/10/06 10:38:17;;;;;;;6.43;1.65;;;18.70;92.30;;;;;;5057415;28;20418;-77
2022/10/06 10:41:08;;;;;;;5.65;1.40;;;18.20;94.20;;;;;;5050042;28;20378;-77
2022/10/06 10:43:42;;;;;;;5.50;2.42;;;17.80;94.50;;;;;;5056896;28;20493;-77
2022/10/06 10:46:16;;;;;;;2.78;1.35;;;17.70;95.40;;;;;;5049136;28;20048;-76
2022/10/06 10:48:48;;;;;;;5.85;1.58;;;17.50;96.30;;;;;;5055696;28;20082;-76
2022/10/06 10:51:37;;;;;;;4.40;1.70;;;17.30;95.30;;;;;;5053504;28;20041;-76
2022/10/06 10:54:09;;;;;;;5.57;1.73;;;17.00;95.40;;;;;;5058698;28;20064;-77
2022/10/06 10:56:35;;;;;;;5.03;1.73;;;16.90;95.70;;;;;;5058392;28;20095;-76
2022/10/06 10:59:41;;;;;;;4.82;1.42;;;16.90;96.20;;;;;;5046031;28;20151;-76
2022/10/06 11:02:19;;;;;;;7.15;1.73;;;16.90;96.30;;;;;;5044141;28;20696;-77
2022/10/06 11:04:51;;;;;;;4.07;2.10;;;16.90;95.90;;;;;;5052369;28;20048;-76
2022/10/06 11:07:52;;;;;;;4.00;2.00;;;16.90;96.90;;;;;;5057584;28;20143;-76
2022/10/06 11:10:23;;;;;;;6.03;1.67;;;16.70;96.10;;;;;;5045282;28;20672;-76
2022/10/06 11:13:37;;;;;;;4.13;1.80;;;16.60;96.80;;;;;;5059422;28;20049;-76
2022/10/06 11:16:10;;;;;;;;;;;16.70;96.90;;;;;;5042206;28;20065;-77
2022/10/06 11:18:45;;;;;;;6.93;1.73;;;16.70;98.30;;;;;;5053695;28;21459;-76
2022/10/06 11:21:18;;;;;;;7.68;1.63;;;16.90;98.00;;;;;;5052333;28;20056;-77
2022/10/06 11:23:56;;;;;;;;;;;16.90;97.70;;;;;;5047825;28;20040;-77
2022/10/06 11:26:43;;;;;;;5.30;1.73;;;17.30;97.90;;;;;;5053058;28;20572;-75
2022/10/06 11:29:33;;;;;;;3.40;1.60;;;17.10;95.80;;;;;;5044013;28;20056;-75
2022/10/06 11:32:15;;;;;;;4.60;1.60;;;17.20;96.70;;;;;;5040081;28;20045;-75
2022/10/06 11:34:42;;;;;;;3.28;1.40;;;17.20;97.20;;;;;;5056783;28;20181;-76
2022/10/06 11:37:50;;;;;;;4.60;1.58;;;17.20;96.50;;;;;;5058990;28;20473;-76
2022/10/06 11:40:19;;;;;;;2.55;1.25;;;17.10;95.90;;;;;;5021698;28;21038;-76
2022/10/06 11:43:26;;;;;;;4.80;1.63;;;17.00;96.70;;;;;;5017612;28;20049;-76
2022/10/06 11:45:58;;;;;;;3.40;1.33;;;17.00;96.30;;;;;;4974090;28;20065;-76
2022/10/06 11:48:28;;;;;;;5.87;1.07;;;17.00;96.30;;;;;;5050112;28;20052;-75
2022/10/06 11:51:15;;;;;;;4.15;1.30;;;17.00;95.50;;;;;;5048603;28;20131;-75
2022/10/06 11:53:44;;;;;;;3.40;1.58;;;17.10;95.70;;;;;;5055884;28;20161;-76
2022/10/06 11:56:16;;;;;;;6.25;1.80;;;17.20;96.10;;;;;;5058119;28;20555;-76
2022/10/06 11:58:51;;;;;;;5.88;1.30;;;17.30;95.60;;;;;;5056776;28;20131;-76
2022/10/06 12:01:32;;;;;;;3.60;1.42;;;17.40;96.40;;;;;;5055490;28;20041;-76
2022/10/06 12:04:06;;;;;;;5.95;1.50;;;17.50;95.30;;;;;;5050934;28;20160;-75
2022/10/06 12:06:47;;;;;;;3.72;1.52;;;17.50;95.00;;;;;;5058247;28;20041;-76
2022/10/06 12:09:25;;;;;;;3.70;1.70;;;17.50;94.70;;;;;;5050184;28;20056;-77
2022/10/06 12:12:09;;;;;;;3.80;1.38;;;17.40;94.60;;;;;;5052454;28;20041;-78
2022/10/06 12:15:02;;;;;;;7.13;1.67;;;17.40;94.90;;;;;;5047453;28;20087;-77
2022/10/06 12:17:45;;;;;;;2.72;1.35;;;17.50;95.60;;;;;;5050546;28;20053;-76
2022/10/06 12:21:05;;;;;;;5.82;1.23;;;17.40;94.40;;;;;;5057650;28;20041;-76
2022/10/06 12:23:59;;;;;;;5.05;1.42;;;17.40;94.80;;;;;;5037987;28;20544;-77
2022/10/06 12:26:51;;;;;;;3.55;1.35;;;17.50;95.80;;;;;;5055861;28;20262;-75
2022/10/06 12:29:33;;;;;;;3.92;1.27;;;17.50;95.40;;;;;;5054469;28;20637;-76
2022/10/06 12:32:26;;;;;;;3.45;1.27;;;17.50;94.20;;;;;;5055614;28;20041;-75
2022/10/06 12:34:52;;;;;;;;;;;17.40;95.00;;;;;;5047829;28;20840;-75
2022/10/06 12:37:34;;;;;;;4.00;1.67;;;17.40;94.70;;;;;;5058841;28;19924;-75
2022/10/06 12:40:39;;;;;;;3.97;1.40;;;17.40;94.40;;;;;;5056196;28;20139;-76
2022/10/06 12:43:16;;;;;;;4.43;1.10;;;17.30;93.90;;;;;;5054511;28;20581;-75
2022/10/06 12:45:54;;;;;;;4.05;1.65;;;17.40;94.40;;;;;;5058817;28;20068;-75
2022/10/06 12:48:49;;;;;;;7.22;1.27;;;17.30;93.60;;;;;;5056058;28;20088;-75
2022/10/06 12:51:42;;;;;;;2.97;1.30;;;17.30;93.50;;;;;;5054954;28;20093;-76
2022/10/06 12:54:08;;;;;;;2.70;1.27;;;17.40;94.40;;;;;;5057564;28;20743;-76
2022/10/06 12:56:37;;;;;;;2.90;1.00;;;17.40;94.00;;;;;;5056731;28;20305;-75
2022/10/06 12:59:21;;;;;;;6.13;1.48;;;17.30;93.60;;;;;;5057602;28;20711;-75
2022/10/06 13:01:49;;;;;;;4.90;1.33;;;17.30;93.10;;;;;;5057574;28;20040;-75
2022/10/06 13:05:01;;;;;;;3.80;1.55;;;17.20;94.30;;;;;;5057883;28;20064;-76
2022/10/06 13:07:31;;;;;;;1.48;1.25;;;17.30;94.70;;;;;;5055008;28;20052;-75
2022/10/06 13:10:13;;;;;;;5.20;1.60;;;17.30;94.00;;;;;;5055541;28;20159;-75
2022/10/06 13:12:50;;;;;;;2.55;1.05;;;17.30;94.60;;;;;;5055321;28;20052;-75
2022/10/06 13:15:22;;;;;;;2.53;1.30;;;17.30;94.30;;;;;;5055098;28;20044;-75
2022/10/06 13:17:54;;;;;;;4.30;1.40;;;17.40;94.60;;;;;;5054222;28;20050;-75
2022/10/06 13:20:26;;;;;;;7.45;1.52;;;17.40;95.00;;;;;;5053504;28;21227;-75
2022/10/06 13:22:58;;;;;;;5.90;1.53;;;17.40;94.80;;;;;;5055569;28;20091;-75
2022/10/06 13:25:32;;;;;;;6.90;1.95;;;17.40;94.20;;;;;;5055231;28;20179;-75
2022/10/06 13:28:01;;;;;;;4.95;1.90;;;17.40;94.30;;;;;;5056279;28;20106;-75